createdAt,value
2023-05-11T00:01:08.346Z,49.69
2023-05-11T00:03:36.492Z,49.83
2023-05-11T00:06:04.351Z,49.72
2023-05-11T00:08:31.890Z,49.81
2023-05-11T00:11:02.527Z,49.80
2023-05-11T00:13:30.122Z,49.60
2023-05-11T00:15:58.165Z,49.73
2023-05-11T00:18:26.073Z,49.61
2023-05-11T00:20:54.492Z,49.66
2023-05-11T00:23:22.071Z,49.82
2023-05-11T00:25:49.573Z,49.65
2023-05-11T00:28:17.056Z,49.72
2023-05-11T00:30:45.304Z,49.62
2023-05-11T00:33:12.841Z,49.62
2023-05-11T00:35:40.488Z,49.61
2023-05-11T00:38:07.980Z,49.61
2023-05-11T00:40:35.806Z,49.84
2023-05-11T00:43:03.361Z,49.89
2023-05-11T00:45:30.966Z,49.90
2023-05-11T00:47:58.732Z,49.77
2023-05-11T00:50:27.098Z,49.84
2023-05-11T00:52:57.662Z,49.92
2023-05-11T00:55:26.197Z,49.85
2023-05-11T00:57:53.952Z,49.82
2023-05-11T01:00:21.806Z,50.20
2023-05-11T01:02:49.647Z,50.19
2023-05-11T01:05:17.472Z,50.29
2023-05-11T01:08:06.749Z,50.07
2023-05-11T01:11:21.505Z,50.40
2023-05-11T01:14:16.651Z,50.38
2023-05-11T01:16:49.357Z,50.59
2023-05-11T01:19:56.538Z,50.59
2023-05-11T01:23:04.300Z,50.52
2023-05-11T01:26:08.151Z,50.75
2023-05-11T01:29:06.676Z,50.70
2023-05-11T01:31:35.277Z,50.64
2023-05-11T01:34:07.466Z,51.05
2023-05-11T01:36:42.756Z,51.10
2023-05-11T01:39:12.791Z,51.09
2023-05-11T01:41:45.720Z,51.17
2023-05-11T01:44:16.493Z,51.02
2023-05-11T01:46:44.423Z,51.36
2023-05-11T01:49:14.027Z,51.59
2023-05-11T01:51:43.853Z,51.60
2023-05-11T01:54:12.110Z,51.54
2023-05-11T01:56:43.136Z,51.65
2023-05-11T01:59:12.691Z,51.58
2023-05-11T02:01:41.296Z,51.68
2023-05-11T02:04:11.185Z,51.61
2023-05-11T02:06:39.947Z,51.78
2023-05-11T02:09:10.007Z,51.85
2023-05-11T02:11:40.314Z,52.23
2023-05-11T02:14:10.152Z,52.06
2023-05-11T02:16:38.785Z,52.34
2023-05-11T02:19:08.164Z,52.71
2023-05-11T02:21:38.136Z,52.80
2023-05-11T02:24:07.773Z,52.82
2023-05-11T02:26:36.713Z,52.71
2023-05-11T02:29:04.398Z,52.68
2023-05-11T02:31:42.404Z,52.64
2023-05-11T02:34:26.215Z,52.78
2023-05-11T02:37:00.909Z,52.68
2023-05-11T02:39:35.225Z,52.49
2023-05-11T02:42:18.180Z,52.40
2023-05-11T02:44:58.652Z,52.52
2023-05-11T02:47:31.548Z,52.95
2023-05-11T02:50:04.192Z,52.42
2023-05-11T02:52:36.271Z,52.78
2023-05-11T02:55:05.578Z,52.80
2023-05-11T02:57:33.642Z,52.69
2023-05-11T03:00:06.596Z,52.71
2023-05-11T03:02:34.439Z,52.66
2023-05-11T03:05:02.096Z,52.52
2023-05-11T03:07:32.919Z,52.52
2023-05-11T03:10:02.939Z,52.31
2023-05-11T03:12:35.570Z,52.43
2023-05-11T03:15:04.728Z,52.56
2023-05-11T03:17:35.826Z,52.80
2023-05-11T03:20:06.249Z,52.74
2023-05-11T03:22:36.895Z,52.52
2023-05-11T03:25:07.142Z,52.65
2023-05-11T03:27:36.025Z,52.57
2023-05-11T03:30:08.698Z,52.34
2023-05-11T03:32:41.058Z,52.42
2023-05-11T03:35:09.273Z,52.56
2023-05-11T03:37:39.247Z,52.72
2023-05-11T03:40:09.829Z,52.66
2023-05-11T03:42:57.121Z,52.80
2023-05-11T03:45:29.487Z,52.83
2023-05-11T03:47:57.908Z,52.75
2023-05-11T03:50:27.085Z,52.37
2023-05-11T03:52:55.918Z,52.62
2023-05-11T03:55:24.225Z,52.63
2023-05-11T03:57:52.420Z,52.66
2023-05-11T04:00:20.131Z,52.75
2023-05-11T04:02:47.990Z,52.79
2023-05-11T04:05:15.753Z,52.96
2023-05-11T04:07:46.248Z,53.15
2023-05-11T04:10:13.790Z,53.07
2023-05-11T04:12:42.381Z,53.19
2023-05-11T04:15:10.693Z,53.08
2023-05-11T04:17:38.390Z,53.11
2023-05-11T04:20:08.805Z,53.07
2023-05-11T04:22:36.328Z,52.97
2023-05-11T04:25:04.434Z,52.95
2023-05-11T04:27:34.328Z,53.18
2023-05-11T04:30:02.214Z,53.04
2023-05-11T04:32:30.322Z,52.95
2023-05-11T04:34:59.254Z,52.99
2023-05-11T04:37:29.598Z,53.02
2023-05-11T04:39:58.157Z,53.12
2023-05-11T04:42:25.704Z,53.76
2023-05-11T04:44:55.899Z,53.67
2023-05-11T04:47:23.417Z,53.91
2023-05-11T04:49:51.839Z,53.89
2023-05-11T04:52:19.357Z,53.81
2023-05-11T04:54:49.546Z,53.87
2023-05-11T04:57:17.790Z,53.63
2023-05-11T04:59:47.247Z,53.62
2023-05-11T05:02:14.830Z,53.60
2023-05-11T05:04:42.319Z,53.46
2023-05-11T05:07:10.457Z,53.50
2023-05-11T05:09:37.957Z,53.38
2023-05-11T05:12:05.744Z,53.23
2023-05-11T05:14:33.311Z,53.30
2023-05-11T05:17:02.301Z,53.26
2023-05-11T05:19:30.546Z,53.24
2023-05-11T05:21:58.635Z,53.26
2023-05-11T05:24:26.416Z,53.35
2023-05-11T05:26:53.927Z,53.87
2023-05-11T05:29:22.032Z,53.74
2023-05-11T05:31:49.919Z,53.69
2023-05-11T05:34:18.812Z,54.00
2023-05-11T05:36:46.354Z,54.14
2023-05-11T05:39:14.470Z,53.97
2023-05-11T05:41:42.758Z,53.96
2023-05-11T05:44:11.289Z,53.92
2023-05-11T05:46:39.778Z,53.88
2023-05-11T05:49:07.592Z,54.29
2023-05-11T05:51:37.620Z,54.40
2023-05-11T05:54:05.956Z,54.22
2023-05-11T05:56:35.006Z,54.03
2023-05-11T05:59:02.723Z,54.04
2023-05-11T06:01:30.379Z,54.06
2023-05-11T06:03:59.014Z,54.20
2023-05-11T06:06:27.109Z,54.02
2023-05-11T06:08:54.679Z,54.14
2023-05-11T06:11:22.520Z,54.31
2023-05-11T06:13:52.064Z,54.05
2023-05-11T06:16:20.299Z,54.12
2023-05-11T06:18:49.120Z,53.87
2023-05-11T06:21:16.927Z,54.01
2023-05-11T06:23:44.666Z,53.97
2023-05-11T06:26:12.455Z,54.02
2023-05-11T06:28:40.724Z,53.75
2023-05-11T06:31:13.545Z,53.66
2023-05-11T06:33:42.420Z,53.46
2023-05-11T06:36:18.255Z,53.52
2023-05-11T06:38:46.387Z,53.44
2023-05-11T06:41:13.974Z,54.40
2023-05-11T06:43:42.462Z,54.36
2023-05-11T06:46:22.137Z,54.26
2023-05-11T06:48:50.300Z,54.24
2023-05-11T06:51:17.961Z,54.05
2023-05-11T06:53:45.529Z,54.21
2023-05-11T06:56:13.052Z,54.26
2023-05-11T06:58:40.531Z,54.17
2023-05-11T07:01:08.138Z,53.81
2023-05-11T07:03:36.377Z,53.96
2023-05-11T07:06:04.074Z,53.90
2023-05-11T07:08:31.674Z,54.07
2023-05-11T07:10:59.419Z,54.17
2023-05-11T07:13:26.889Z,54.13
2023-05-11T07:15:57.195Z,54.15
2023-05-11T07:18:25.277Z,54.11
2023-05-11T07:20:52.939Z,54.13
2023-05-11T07:23:20.427Z,54.16
2023-05-11T07:25:48.000Z,54.05
2023-05-11T07:28:15.459Z,53.71
2023-05-11T07:30:42.997Z,53.98
2023-05-11T07:33:10.573Z,53.61
2023-05-11T07:35:38.227Z,54.15
2023-05-11T07:38:07.933Z,54.08
2023-05-11T07:40:35.655Z,54.25
2023-05-11T07:43:03.166Z,54.00
2023-05-11T07:45:31.380Z,54.51
2023-05-11T07:47:58.949Z,54.97
2023-05-11T07:50:26.712Z,55.48
2023-05-11T07:52:54.529Z,55.51
2023-05-11T07:55:24.917Z,55.87
2023-05-11T07:57:54.383Z,55.86
2023-05-11T08:00:22.293Z,55.57
2023-05-11T08:02:49.966Z,55.65
2023-05-11T08:05:18.687Z,55.40
2023-05-11T08:07:47.255Z,55.65
2023-05-11T08:10:14.915Z,55.42
2023-05-11T08:12:42.791Z,55.87
2023-05-11T08:15:11.018Z,55.51
2023-05-11T08:17:38.610Z,55.63
2023-05-11T08:20:07.149Z,55.78
2023-05-11T08:22:34.899Z,55.17
2023-05-11T08:25:03.705Z,55.32
2023-05-11T08:27:31.235Z,55.19
2023-05-11T08:30:00.113Z,55.44
2023-05-11T08:32:27.690Z,55.66
2023-05-11T08:34:55.289Z,55.73
2023-05-11T08:37:23.465Z,55.93
2023-05-11T08:39:51.430Z,55.62
2023-05-11T08:42:19.972Z,55.54
2023-05-11T08:44:49.272Z,55.37
2023-05-11T08:47:23.324Z,55.21
2023-05-11T08:49:54.858Z,54.98
2023-05-11T08:52:22.390Z,55.50
2023-05-11T08:54:49.982Z,54.86
2023-05-11T08:57:18.089Z,55.12
2023-05-11T08:59:49.151Z,55.56
2023-05-11T09:02:20.321Z,55.41
2023-05-11T09:04:49.474Z,55.39
2023-05-11T09:07:17.863Z,55.52
2023-05-11T09:09:47.780Z,55.96
2023-05-11T09:12:16.949Z,56.06
2023-05-11T09:14:46.588Z,55.98
2023-05-11T09:17:14.309Z,55.97
2023-05-11T09:20:02.023Z,56.14
2023-05-11T09:22:33.818Z,56.17
2023-05-11T09:25:04.226Z,56.11
2023-05-11T09:27:32.310Z,56.02
2023-05-11T09:30:23.310Z,56.08
2023-05-11T09:33:00.350Z,56.40
2023-05-11T09:35:35.484Z,56.39
2023-05-11T09:38:14.122Z,56.47
2023-05-11T09:40:50.314Z,56.13
2023-05-11T09:43:25.775Z,56.66
2023-05-11T09:46:01.569Z,57.19
2023-05-11T09:48:32.050Z,56.93
2023-05-11T09:51:06.071Z,56.96
2023-05-11T09:53:45.788Z,56.79
2023-05-11T09:56:15.486Z,56.52
2023-05-11T09:58:57.189Z,56.47
2023-05-11T10:01:35.013Z,56.94
2023-05-11T10:04:20.993Z,57.14
2023-05-11T10:06:53.151Z,56.93
2023-05-11T10:09:25.344Z,56.78
2023-05-11T10:11:55.322Z,56.63
2023-05-11T10:14:24.024Z,57.21
2023-05-11T10:16:52.161Z,57.03
2023-05-11T10:19:20.112Z,57.68
2023-05-11T10:21:48.092Z,57.02
2023-05-11T10:24:18.851Z,57.87
2023-05-11T10:26:48.531Z,58.11
2023-05-11T10:29:19.474Z,57.41
2023-05-11T10:31:48.743Z,57.17
2023-05-11T10:34:17.625Z,57.62
2023-05-11T10:36:47.269Z,57.17
2023-05-11T10:39:14.753Z,56.49
2023-05-11T10:42:06.307Z,56.46
2023-05-11T10:45:06.963Z,56.17
2023-05-11T10:48:10.231Z,56.88
2023-05-11T10:50:49.614Z,56.05
2023-05-11T10:54:10.777Z,56.08
2023-05-11T10:57:02.283Z,56.54
2023-05-11T11:00:14.042Z,56.24
2023-05-11T11:02:42.918Z,56.24
2023-05-11T11:05:15.710Z,55.97
2023-05-11T11:08:04.141Z,56.34
2023-05-11T11:10:45.948Z,55.67
2023-05-11T11:13:14.946Z,55.70
2023-05-11T11:16:05.703Z,55.69
2023-05-11T11:18:33.952Z,56.50
2023-05-11T11:21:02.479Z,56.53
2023-05-11T11:23:50.453Z,55.96
2023-05-11T11:26:50.346Z,55.89
2023-05-11T11:29:18.020Z,56.32
2023-05-11T11:31:45.635Z,55.77
2023-05-11T11:34:28.000Z,55.35
2023-05-11T11:36:55.428Z,55.46
2023-05-11T11:39:25.408Z,55.41
2023-05-11T11:42:07.125Z,55.20
2023-05-11T11:44:35.436Z,54.02
2023-05-11T11:47:22.825Z,53.79
2023-05-11T11:49:53.593Z,54.22
2023-05-11T11:52:27.140Z,54.80
2023-05-11T11:54:57.092Z,53.79
2023-05-11T11:57:46.549Z,52.26
2023-05-11T12:00:19.893Z,52.38
2023-05-11T12:02:47.518Z,52.58
2023-05-11T12:05:21.411Z,51.86
2023-05-11T12:07:51.535Z,51.52
2023-05-11T12:10:23.075Z,49.67
2023-05-11T12:12:54.926Z,49.74
2023-05-11T12:15:32.339Z,51.00
2023-05-11T12:18:02.720Z,51.20
2023-05-11T12:20:30.440Z,50.55
2023-05-11T12:22:57.964Z,49.60
2023-05-11T12:25:25.523Z,48.69
2023-05-11T12:28:03.183Z,48.14
2023-05-11T12:30:33.676Z,48.71
2023-05-11T12:33:04.258Z,49.20
2023-05-11T12:35:34.115Z,48.83
2023-05-11T12:38:02.787Z,48.41
2023-05-11T12:40:31.664Z,48.63
2023-05-11T12:43:00.485Z,48.65
2023-05-11T12:45:29.104Z,49.37
2023-05-11T12:47:58.284Z,48.60
2023-05-11T12:50:25.837Z,48.25
2023-05-11T12:52:53.364Z,48.80
2023-05-11T12:55:30.975Z,47.49
2023-05-11T12:58:18.552Z,47.21
2023-05-11T13:00:57.947Z,47.28
2023-05-11T13:03:28.682Z,47.03
2023-05-11T13:06:08.067Z,46.94
2023-05-11T13:08:44.030Z,47.01
2023-05-11T13:11:24.460Z,46.47
2023-05-11T13:13:54.183Z,45.71
2023-05-11T13:16:33.495Z,45.07
2023-05-11T13:19:03.787Z,44.72
2023-05-11T13:21:33.132Z,45.22
2023-05-11T13:24:03.691Z,45.41
2023-05-11T13:26:31.780Z,44.35
2023-05-11T13:29:10.261Z,44.21
2023-05-11T13:31:50.617Z,45.08
2023-05-11T13:34:19.714Z,44.51
2023-05-11T13:36:47.960Z,44.90
2023-05-11T13:39:15.539Z,45.15
2023-05-11T13:41:43.355Z,45.30
2023-05-11T13:44:11.164Z,45.04
2023-05-11T13:46:38.800Z,45.04
2023-05-11T13:49:06.641Z,43.77
2023-05-11T13:51:34.271Z,43.65
2023-05-11T13:54:02.537Z,43.47
2023-05-11T13:56:31.460Z,43.87
2023-05-11T13:59:00.068Z,43.82
2023-05-11T14:01:28.165Z,43.69
2023-05-11T14:03:56.939Z,43.62
2023-05-11T14:06:25.585Z,43.96
2023-05-11T14:08:53.764Z,43.42
2023-05-11T14:11:21.465Z,43.63
2023-05-11T14:13:49.389Z,43.62
2023-05-11T14:16:20.815Z,43.85
2023-05-11T14:18:50.585Z,43.69
2023-05-11T14:21:18.287Z,43.67
2023-05-11T14:23:57.538Z,43.30
2023-05-11T14:26:33.392Z,43.08
2023-05-11T14:29:00.949Z,43.00
2023-05-11T14:31:29.008Z,42.51
2023-05-11T14:33:56.570Z,42.36
2023-05-11T14:36:24.182Z,42.55
2023-05-11T14:38:51.924Z,42.46
2023-05-11T14:41:19.721Z,42.93
2023-05-11T14:43:49.141Z,43.08
2023-05-11T14:46:17.711Z,43.08
2023-05-11T14:48:45.403Z,43.42
2023-05-11T14:51:13.015Z,43.49
2023-05-11T14:53:40.577Z,43.06
2023-05-11T14:56:08.204Z,43.29
2023-05-11T14:58:35.901Z,42.93
2023-05-11T15:01:04.812Z,42.46
2023-05-11T15:03:32.351Z,42.22
2023-05-11T15:05:59.953Z,42.11
2023-05-11T15:08:30.522Z,41.47
2023-05-11T15:10:58.853Z,39.97
2023-05-11T15:13:26.712Z,40.49
2023-05-11T15:15:54.334Z,40.69
2023-05-11T15:18:22.013Z,41.06
2023-05-11T15:20:49.699Z,40.78
2023-05-11T15:23:17.712Z,41.07
2023-05-11T15:25:46.187Z,40.70
2023-05-11T15:28:14.164Z,40.66
2023-05-11T15:30:42.074Z,40.65
2023-05-11T15:33:10.311Z,40.55
2023-05-11T15:35:38.259Z,40.58
2023-05-11T15:38:06.352Z,40.46
2023-05-11T15:40:34.026Z,40.50
2023-05-11T15:43:01.657Z,40.67
2023-05-11T15:45:30.151Z,40.59
2023-05-11T15:47:58.255Z,41.21
2023-05-11T15:50:26.175Z,41.28
2023-05-11T15:52:53.741Z,41.59
2023-05-11T15:55:21.317Z,41.47
2023-05-11T15:57:49.153Z,41.56
2023-05-11T16:00:17.381Z,41.65
2023-05-11T16:02:45.764Z,41.63
2023-05-11T16:05:13.521Z,41.47
2023-05-11T16:07:41.039Z,41.19
2023-05-11T16:10:09.150Z,41.24
2023-05-11T16:12:36.670Z,41.55
2023-05-11T16:15:05.238Z,40.77
2023-05-11T16:17:32.751Z,41.39
2023-05-11T16:20:00.353Z,41.74
2023-05-11T16:22:28.051Z,41.74
2023-05-11T16:24:55.562Z,41.92
2023-05-11T16:27:23.557Z,41.72
2023-05-11T16:29:52.215Z,41.80
2023-05-11T16:32:20.296Z,42.09
2023-05-11T16:34:47.866Z,41.73
2023-05-11T16:37:16.097Z,41.71
2023-05-11T16:39:44.581Z,41.91
2023-05-11T16:42:12.101Z,41.87
2023-05-11T16:44:39.685Z,42.07
2023-05-11T16:47:07.275Z,42.37
2023-05-11T16:49:34.854Z,42.53
2023-05-11T16:52:02.356Z,42.49
2023-05-11T16:54:29.899Z,42.56
2023-05-11T16:56:57.466Z,42.63
2023-05-11T16:59:25.015Z,42.72
2023-05-11T17:01:52.518Z,42.89
2023-05-11T17:04:20.638Z,43.04
2023-05-11T17:06:48.340Z,43.20
2023-05-11T17:09:16.104Z,43.41
2023-05-11T17:11:43.675Z,43.32
2023-05-11T17:14:11.208Z,43.38
2023-05-11T17:16:38.796Z,43.27
2023-05-11T17:19:06.389Z,43.72
2023-05-11T17:21:34.082Z,43.49
2023-05-11T17:24:01.750Z,43.60
2023-05-11T17:26:43.340Z,43.85
2023-05-11T17:29:15.895Z,43.68
2023-05-11T17:31:43.616Z,43.68
2023-05-11T17:34:11.399Z,43.86
2023-05-11T17:36:39.124Z,43.63
2023-05-11T17:39:06.716Z,43.77
2023-05-11T17:41:34.223Z,43.69
2023-05-11T17:44:01.777Z,43.66
2023-05-11T17:46:29.896Z,43.76
2023-05-11T17:48:58.109Z,43.71
2023-05-11T17:51:25.824Z,43.87
2023-05-11T17:53:53.462Z,43.64
2023-05-11T17:56:22.193Z,43.79
2023-05-11T17:58:51.487Z,44.08
2023-05-11T18:01:19.596Z,44.61
2023-05-11T18:03:47.433Z,44.93
2023-05-11T18:06:15.052Z,44.99
2023-05-11T18:08:42.680Z,45.07
2023-05-11T18:11:11.095Z,45.09
2023-05-11T18:13:38.612Z,45.49
2023-05-11T18:16:06.897Z,45.89
2023-05-11T18:18:34.670Z,45.69
2023-05-11T18:21:10.660Z,45.85
2023-05-11T18:23:38.418Z,45.97
2023-05-11T18:26:06.737Z,46.15
2023-05-11T18:28:34.435Z,46.29
2023-05-11T18:31:01.979Z,46.51
2023-05-11T18:33:29.556Z,46.71
2023-05-11T18:35:57.098Z,46.65
2023-05-11T18:38:24.578Z,46.92
2023-05-11T18:40:53.716Z,46.76
2023-05-11T18:43:21.303Z,46.91
2023-05-11T18:45:50.177Z,47.06
2023-05-11T18:48:17.656Z,47.10
2023-05-11T18:50:45.168Z,47.33
2023-05-11T18:53:12.668Z,47.57
2023-05-11T18:55:52.094Z,47.78
2023-05-11T18:58:20.660Z,47.77
2023-05-11T19:00:50.095Z,47.87
2023-05-11T19:03:19.828Z,48.21
2023-05-11T19:05:48.582Z,48.17
2023-05-11T19:08:16.564Z,48.04
2023-05-11T19:10:45.292Z,48.15
2023-05-11T19:13:13.287Z,48.17
2023-05-11T19:15:40.795Z,48.32
2023-05-11T19:18:08.354Z,48.35
2023-05-11T19:20:36.640Z,48.41
2023-05-11T19:23:05.118Z,48.58
2023-05-11T19:25:32.864Z,48.50
2023-05-11T19:28:01.025Z,48.78
2023-05-11T19:30:28.524Z,48.80
2023-05-11T19:32:56.032Z,48.90
2023-05-11T19:35:23.716Z,48.95
2023-05-11T19:37:51.272Z,48.98
2023-05-11T19:40:44.674Z,48.99
2023-05-11T19:43:08.372Z,48.95
2023-05-11T19:45:37.264Z,49.04
2023-05-11T19:48:05.158Z,49.43
2023-05-11T19:50:32.896Z,49.64
2023-05-11T19:53:00.404Z,49.59
2023-05-11T19:55:27.874Z,49.79
2023-05-11T19:57:55.430Z,50.19
2023-05-11T20:00:25.156Z,50.04
2023-05-11T20:02:53.562Z,50.11
2023-05-11T20:05:21.311Z,50.58
2023-05-11T20:07:48.829Z,50.58
2023-05-11T20:10:16.771Z,50.67
2023-05-11T20:12:44.570Z,50.80
2023-05-11T20:15:12.139Z,51.21
2023-05-11T20:17:40.041Z,51.58
2023-05-11T20:20:08.661Z,51.91
2023-05-11T20:22:37.276Z,51.86
2023-05-11T20:25:13.944Z,52.10
2023-05-11T20:27:45.309Z,52.13
2023-05-11T20:30:13.400Z,51.73
2023-05-11T20:34:06.754Z,51.92
2023-05-11T20:35:29.258Z,51.91
2023-05-11T20:37:57.058Z,52.18
2023-05-11T20:40:25.512Z,52.34
2023-05-11T20:42:53.068Z,52.60
2023-05-11T20:45:20.715Z,52.29
2023-05-11T20:47:48.247Z,52.52
2023-05-11T20:50:15.869Z,52.81
2023-05-11T20:52:43.363Z,52.75
2023-05-11T20:55:11.007Z,52.98
2023-05-11T20:57:38.504Z,52.92
2023-05-11T21:00:07.585Z,53.07
2023-05-11T21:02:35.323Z,53.11
2023-05-11T21:05:03.840Z,53.21
2023-05-11T21:07:31.382Z,53.03
2023-05-11T21:09:59.145Z,53.26
2023-05-11T21:12:26.697Z,53.55
2023-05-11T21:14:56.703Z,53.82
2023-05-11T21:17:24.613Z,53.57
2023-05-11T21:19:52.178Z,53.63
2023-05-11T21:22:19.765Z,53.60
2023-05-11T21:24:47.514Z,53.64
2023-05-11T21:27:15.118Z,53.64
2023-05-11T21:29:42.619Z,53.61
2023-05-11T21:32:10.751Z,53.66
2023-05-11T21:34:38.510Z,53.63
2023-05-11T21:37:06.376Z,54.00
2023-05-11T21:39:33.996Z,53.86
2023-05-11T21:42:03.483Z,54.25
2023-05-11T21:44:30.940Z,54.25
2023-05-11T21:46:58.630Z,54.29
2023-05-11T21:49:26.271Z,54.11
2023-05-11T21:51:53.810Z,54.26
2023-05-11T21:54:22.370Z,54.18
2023-05-11T21:56:52.029Z,54.17
2023-05-11T21:59:19.813Z,54.26
2023-05-11T22:01:49.005Z,54.10
2023-05-11T22:04:16.777Z,53.99
2023-05-11T22:06:44.343Z,54.17
2023-05-11T22:09:12.102Z,54.07
2023-05-11T22:11:39.752Z,54.03
2023-05-11T22:14:07.221Z,54.05
2023-05-11T22:16:34.782Z,54.00
2023-05-11T22:19:02.432Z,54.11
2023-05-11T22:21:30.049Z,53.88
2023-05-11T22:23:57.824Z,53.73
2023-05-11T22:26:26.342Z,53.91
2023-05-11T22:28:53.878Z,53.89
2023-05-11T22:31:21.438Z,54.05
2023-05-11T22:33:49.039Z,54.19
2023-05-11T22:36:16.516Z,53.92
2023-05-11T22:38:44.085Z,53.83
2023-05-11T22:41:11.593Z,53.96
2023-05-11T22:43:39.059Z,54.18
2023-05-11T22:46:06.907Z,54.18
2023-05-11T22:48:34.498Z,54.23
2023-05-11T22:51:06.132Z,54.34
2023-05-11T22:53:33.730Z,54.05
2023-05-11T22:56:07.316Z,54.14
2023-05-11T22:58:35.477Z,54.12
2023-05-11T23:01:03.508Z,54.32
2023-05-11T23:03:31.175Z,54.05
2023-05-11T23:05:58.741Z,54.22
2023-05-11T23:08:26.590Z,54.09
2023-05-11T23:10:54.132Z,54.37
2023-05-11T23:13:21.648Z,54.48
2023-05-11T23:15:49.286Z,54.21
2023-05-11T23:18:16.925Z,54.14
2023-05-11T23:20:44.598Z,54.32
2023-05-11T23:23:12.141Z,54.01
2023-05-11T23:25:39.667Z,54.26
2023-05-11T23:28:11.388Z,54.06
2023-05-11T23:30:39.041Z,54.37
2023-05-11T23:33:06.929Z,54.37
2023-05-11T23:35:34.436Z,54.51
2023-05-11T23:38:01.985Z,54.32
2023-05-11T23:40:29.833Z,54.21
2023-05-11T23:42:57.439Z,54.17
2023-05-11T23:45:26.079Z,54.28
2023-05-11T23:47:53.758Z,54.27
2023-05-11T23:50:21.405Z,54.38
2023-05-11T23:52:49.598Z,54.70
2023-05-11T23:55:17.272Z,54.73
2023-05-11T23:57:44.967Z,54.57
